This is the latest recevied weather packets stored in our database for station/object AA7VG. If no packets are shown the sender has not sent any weather packets the latest 10 day(s).
| Time | Temp. | Humidity | Pressure | Rain* | Wind** | Luminosity | Snow |
|---|---|---|---|---|---|---|---|
| 1777541772 | 1.11° C | 76% | 1023.1 hPa | 0 mm | - | - | - |
| 1777541468 | 0.56° C | 78% | 1023.1 hPa | 0 mm | - | - | - |
| 1777541165 | 0.56° C | 79% | 1022.8 hPa | 0 mm | - | - | - |
| 1777540861 | 0.56° C | 79% | 1022.8 hPa | 0 mm | - | - | - |
| 1777540559 | 0.56° C | 78% | 1022.8 hPa | 0 mm | - | - | - |
| 1777540255 | 0.56° C | 77% | 1022.7 hPa | 0 mm | - | - | - |
| 1777539950 | 1.11° C | 75% | 1022.6 hPa | 0 mm | - | - | - |
| 1777539647 | 1.67° C | 75% | 1022.7 hPa | 0 mm | - | - | - |
| 1777539344 | 1.67° C | 74% | 1022.6 hPa | 0 mm | - | - | - |
| 1777539041 | 2.22° C | 71% | 1022.8 hPa | 0 mm | - | - | - |
| 1777538736 | 2.22° C | 70% | 1022.5 hPa | 0 mm | - | - | - |
| 1777538431 | 2.22° C | 70% | 1022.5 hPa | 0 mm | - | - | - |
| 1777538127 | 2.22° C | 71% | 1022.6 hPa | 0 mm | - | - | - |
| 1777537823 | 2.22° C | 71% | 1022.5 hPa | 0 mm | - | - | - |
| 1777537520 | 2.22° C | 72% | 1022.6 hPa | 0 mm | - | - | - |
| 1777537215 | 2.22° C | 72% | 1022.6 hPa | 0 mm | - | - | - |
| 1777536912 | 2.22° C | 72% | 1022.7 hPa | 0 mm | - | - | - |
| 1777536610 | 2.22° C | 72% | 1022.7 hPa | 0 mm | - | - | - |
| 1777536306 | 2.22° C | 73% | 1022.8 hPa | 0 mm | - | - | - |
| 1777536003 | 2.22° C | 73% | 1022.6 hPa | 0 mm | - | - | - |
| 1777535698 | 1.67° C | 74% | 1022.8 hPa | 0 mm | - | - | - |
| 1777535395 | 1.67° C | 75% | 1023.2 hPa | 0 mm | - | - | - |
| 1777535092 | 1.67° C | 76% | 1022.8 hPa | 0 mm | - | - | - |
| 1777534789 | 1.11° C | 76% | 1023.1 hPa | 0 mm | - | - | - |
| 1777534486 | 1.11° C | 77% | 1023.2 hPa | 0 mm | - | - | - |
* Rain latest hour (hover to see other rain measurements)
** Current wind speed in m/s (hover to see current wind gust speed)